Time;durP1;ratioP1;P1;durP2;ratioP2;P2;SDS_P1;SDS_P2;PMS_P1;PMS_P2;Temp;Humidity;BMP_temperature;BMP_pressure;BME280_temperature;BME280_humidity;BME280_pressure;Samples;Min_cycle;Max_cycle;Signal;HPM_P1;HPM_P2
2023/05/17 00:04:53;;;;;;;3.95;1.60;;;;;;;8.63;55.07;100532.63;10414984;28;20556;-58
2023/05/17 00:09:55;;;;;;;2.67;1.30;;;;;;;8.45;55.51;100535.16;10402220;28;20045;-58
2023/05/17 00:14:57;;;;;;;4.95;1.40;;;;;;;8.30;55.70;100539.25;10402794;28;20049;-58
2023/05/17 00:19:59;;;;;;;5.47;1.35;;;;;;;8.27;55.90;100539.38;10398640;28;20042;-58
2023/05/17 00:25:01;;;;;;;3.08;1.17;;;;;;;8.22;56.13;100543.09;10422550;28;20053;-58
2023/05/17 00:30:03;;;;;;;2.85;1.20;;;;;;;8.09;56.29;100541.84;10399626;28;20046;-58
2023/05/17 00:35:06;;;;;;;2.28;1.20;;;;;;;7.96;56.56;100546.66;10415683;28;20041;-58
2023/05/17 00:40:08;;;;;;;2.67;1.65;;;;;;;7.82;57.16;100552.44;10397900;28;20057;-58
2023/05/17 00:45:10;;;;;;;2.50;1.20;;;;;;;7.79;57.36;100549.09;10400946;28;20561;-58
2023/05/17 00:50:12;;;;;;;2.80;1.50;;;;;;;7.68;57.59;100554.72;10398997;28;20060;-58
2023/05/17 00:55:14;;;;;;;2.55;1.20;;;;;;;7.70;57.65;100555.50;10401473;28;20041;-58
2023/05/17 01:00:17;;;;;;;2.88;1.30;;;;;;;7.69;57.30;100559.00;10396318;28;20056;-58
2023/05/17 01:05:19;;;;;;;1.40;1.10;;;;;;;7.71;57.63;100571.97;10397955;28;20053;-58
2023/05/17 01:10:34;;;;;;;1.75;1.00;;;;;;;7.63;58.32;100572.25;10402755;28;20084;-58
2023/05/17 01:15:45;;;;;;;3.35;1.42;;;;;;;7.44;58.55;100573.00;10397833;28;20623;-58
2023/05/17 01:20:51;;;;;;;4.43;1.75;;;;;;;7.45;58.35;100577.31;10414901;28;20049;-58
2023/05/17 01:26:09;;;;;;;2.00;1.25;;;;;;;7.40;58.86;100584.44;10429819;28;20505;-56
2023/05/17 01:31:12;;;;;;;1.65;0.88;;;;;;;7.30;58.60;100589.13;10398106;28;20044;-58
2023/05/17 01:36:14;;;;;;;2.55;1.33;;;;;;;7.23;58.75;100595.44;10403262;28;20045;-57
2023/05/17 01:41:45;;;;;;;1.83;1.15;;;;;;;7.12;59.49;100598.41;10407406;28;20057;-58
2023/05/17 01:46:52;;;;;;;2.78;1.40;;;;;;;7.06;59.34;100601.22;10440936;28;20516;-57
2023/05/17 01:52:05;;;;;;;1.85;1.20;;;;;;;7.02;59.83;100604.00;10410879;28;20132;-58
2023/05/17 01:57:08;;;;;;;2.47;1.30;;;;;;;7.04;59.14;100610.00;10411902;28;20441;-59
2023/05/17 02:02:12;;;;;;;2.30;1.00;;;;;;;7.06;59.45;100609.03;10431824;28;20482;-58
2023/05/17 02:07:14;;;;;;;4.20;1.20;;;;;;;7.02;59.26;100611.81;10434308;28;20132;-59
2023/05/17 02:12:16;;;;;;;1.92;1.10;;;;;;;6.87;59.37;100610.56;10413208;28;20489;-57
2023/05/17 02:17:18;;;;;;;2.38;1.25;;;;;;;6.81;59.60;100618.59;10414548;28;20537;-58
2023/05/17 02:22:20;;;;;;;1.48;1.15;;;;;;;6.73;59.68;100623.19;10413568;28;20041;-59
2023/05/17 02:27:22;;;;;;;2.75;1.30;;;;;;;6.68;59.84;100627.66;10414180;28;20038;-57
2023/05/17 02:32:27;;;;;;;1.80;1.23;;;;;;;6.62;59.93;100627.88;10412586;28;20044;-59
2023/05/17 02:37:29;;;;;;;2.22;1.40;;;;;;;6.51;60.24;100629.13;10445766;28;20129;-57
2023/05/17 02:42:31;;;;;;;2.42;1.08;;;;;;;6.54;60.21;100632.47;10414014;28;20064;-58
2023/05/17 02:47:33;;;;;;;1.80;1.05;;;;;;;6.58;60.32;100636.66;10414471;28;20041;-59
2023/05/17 02:52:35;;;;;;;3.28;1.50;;;;;;;6.54;60.31;100635.06;10413498;28;20069;-59
2023/05/17 02:57:39;;;;;;;2.03;1.20;;;;;;;6.44;60.35;100633.66;10423824;28;20033;-58
2023/05/17 03:02:41;;;;;;;1.75;1.00;;;;;;;6.35;60.50;100632.19;10417534;28;20099;-58
2023/05/17 03:07:43;;;;;;;2.42;1.05;;;;;;;6.33;60.51;100635.75;10408380;28;20056;-58
2023/05/17 03:12:45;;;;;;;1.85;1.20;;;;;;;6.16;60.88;100638.00;10404001;28;20041;-57
2023/05/17 03:17:49;;;;;;;1.77;1.00;;;;;;;6.14;60.92;100632.81;10418054;28;20045;-57
2023/05/17 03:22:51;;;;;;;1.73;0.98;;;;;;;6.18;60.90;100639.66;10404937;28;20076;-59
2023/05/17 03:27:54;;;;;;;3.28;1.20;;;;;;;6.16;61.26;100645.78;10405003;28;20133;-58
2023/05/17 03:32:56;;;;;;;1.95;1.23;;;;;;;6.23;60.68;100642.09;10404847;28;20141;-57
2023/05/17 03:37:58;;;;;;;1.20;0.98;;;;;;;6.25;60.85;100650.72;10408410;28;20053;-57
2023/05/17 03:43:00;;;;;;;3.53;1.10;;;;;;;6.32;60.76;100645.31;10407182;28;20057;-53
2023/05/17 03:48:03;;;;;;;1.05;0.90;;;;;;;6.36;60.71;100653.84;10407104;28;20079;-58
2023/05/17 03:53:06;;;;;;;2.53;1.17;;;;;;;6.35;60.70;100655.59;10418120;28;20072;-58
2023/05/17 03:58:08;;;;;;;3.10;1.23;;;;;;;6.55;60.77;100661.91;10407246;28;20184;-58
2023/05/17 04:03:11;;;;;;;2.00;1.13;;;;;;;6.68;60.40;100658.00;10401122;28;20046;-58
2023/05/17 04:08:13;;;;;;;2.42;1.35;;;;;;;6.73;60.22;100651.78;10401348;28;20074;-58
2023/05/17 04:13:15;;;;;;;1.83;1.20;;;;;;;6.82;59.93;100663.59;10402458;28;20041;-58
2023/05/17 04:18:19;;;;;;;2.78;1.20;;;;;;;7.00;59.78;100660.38;10402445;28;20417;-59
2023/05/17 04:23:21;;;;;;;2.92;1.17;;;;;;;7.20;59.50;100674.44;10404339;28;20076;-59
2023/05/17 04:28:24;;;;;;;4.95;1.58;;;;;;;7.78;59.19;100665.41;10400176;28;20513;-59
2023/05/17 04:33:26;;;;;;;3.58;1.30;;;;;;;9.92;56.14;100667.91;10402642;28;20045;-59
2023/05/17 04:38:28;;;;;;;1.70;1.30;;;;;;;11.85;52.91;100650.38;10400900;28;20497;-59
2023/05/17 04:43:31;;;;;;;2.22;1.17;;;;;;;13.31;50.23;100656.94;10403166;28;20049;-59
2023/05/17 04:48:34;;;;;;;4.53;1.50;;;;;;;14.85;47.95;100657.72;10401281;28;20133;-59
2023/05/17 04:53:36;;;;;;;2.35;1.35;;;;;;;15.75;46.00;100662.09;10411013;28;20042;-59
2023/05/17 04:58:43;;;;;;;2.22;1.17;;;;;;;16.02;45.27;100667.19;10399836;28;20095;-59
2023/05/17 05:03:48;;;;;;;2.33;1.30;;;;;;;16.68;44.30;100669.47;10435361;28;20053;-59
2023/05/17 05:08:51;;;;;;;3.22;1.20;;;;;;;16.27;43.91;100692.69;10415879;28;20046;-59
2023/05/17 05:13:53;;;;;;;2.17;1.35;;;;;;;14.01;46.45;100704.31;10400333;28;20045;-59
2023/05/17 05:18:55;;;;;;;4.90;1.55;;;;;;;13.15;47.25;100713.94;10407401;28;20152;-60
2023/05/17 05:23:57;;;;;;;2.25;1.20;;;;;;;12.88;47.88;100716.38;10400054;28;20060;-59
2023/05/17 05:28:59;;;;;;;4.13;1.65;;;;;;;12.19;48.93;100714.97;10399346;28;20398;-59
2023/05/17 05:34:02;;;;;;;2.60;1.35;;;;;;;11.63;49.84;100725.81;10395568;28;20048;-59
2023/05/17 05:39:04;;;;;;;2.78;1.42;;;;;;;11.58;50.29;100730.47;10400245;28;20046;-59
2023/05/17 05:44:10;;;;;;;2.13;1.38;;;;;;;11.73;49.88;100722.66;10382016;28;20053;-59
2023/05/17 05:49:12;;;;;;;2.33;1.40;;;;;;;11.66;50.26;100731.75;10400099;28;20047;-59
2023/05/17 05:54:15;;;;;;;4.57;1.55;;;;;;;11.80;50.36;100731.91;10448914;28;20044;-59
2023/05/17 05:59:16;;;;;;;3.22;1.58;;;;;;;11.85;50.61;100747.38;10399261;28;20046;-59
2023/05/17 06:04:19;;;;;;;3.17;1.50;;;;;;;11.97;50.55;100757.19;10415001;28;20129;-59
2023/05/17 06:09:30;;;;;;;4.28;1.55;;;;;;;12.46;50.35;100756.31;10407132;28;20405;-59
2023/05/17 06:14:32;;;;;;;5.50;1.60;;;;;;;13.05;49.16;100757.41;10394559;28;20478;-59
2023/05/17 06:19:34;;;;;;;3.92;1.60;;;;;;;12.66;48.80;100748.19;10391485;28;20048;-59
2023/05/17 06:24:37;;;;;;;3.10;1.60;;;;;;;12.47;49.28;100744.91;10425915;22;20506;-78
2023/05/17 06:29:41;;;;;;;3.72;1.58;;;;;;;12.26;49.45;100753.03;10384019;28;20045;-78
2023/05/17 06:34:43;;;;;;;3.45;1.50;;;;;;;12.18;49.44;100770.97;10405830;28;20679;-77
2023/05/17 06:39:45;;;;;;;5.22;1.63;;;;;;;12.17;49.53;100758.78;10388586;28;20087;-78
2023/05/17 06:44:56;;;;;;;5.25;2.05;;;;;;;12.31;49.34;100756.31;10405439;28;20095;-77
2023/05/17 06:49:58;;;;;;;3.50;1.70;;;;;;;12.19;48.90;100759.56;10400506;28;20057;-78
2023/05/17 06:55:00;;;;;;;4.47;2.13;;;;;;;12.38;48.84;100763.75;10401037;28;20109;-78
2023/05/17 07:00:05;;;;;;;3.58;1.80;;;;;;;12.86;47.80;100763.69;10389215;28;20065;-78
2023/05/17 07:05:07;;;;;;;2.88;1.52;;;;;;;12.82;47.35;100770.03;10402777;28;20099;-78
2023/05/17 07:10:09;;;;;;;3.95;1.70;;;;;;;13.03;47.55;100775.03;10395853;28;20068;-78
2023/05/17 07:15:11;;;;;;;3.85;1.98;;;;;;;13.88;46.53;100778.81;10384740;28;20535;-77
2023/05/17 07:20:13;;;;;;;2.95;1.50;;;;;;;14.96;45.31;100760.59;10400756;28;20099;-78
2023/05/17 07:25:17;;;;;;;3.17;1.60;;;;;;;15.11;44.04;100775.41;10390567;28;20045;-78
2023/05/17 07:30:19;;;;;;;3.10;1.58;;;;;;;15.07;44.19;100771.25;10383068;28;20140;-78
2023/05/17 07:35:22;;;;;;;3.83;1.50;;;;;;;14.71;43.17;100771.84;10393785;28;20037;-78
2023/05/17 07:40:24;;;;;;;5.65;1.80;;;;;;;13.89;45.47;100776.06;10401121;28;20055;-78
2023/05/17 07:45:27;;;;;;;4.80;1.95;;;;;;;13.23;46.12;100787.88;10389129;28;20077;-78
2023/05/17 07:50:29;;;;;;;6.35;1.90;;;;;;;13.28;46.63;100778.81;10387234;28;20498;-77
2023/05/17 07:55:32;;;;;;;3.63;1.73;;;;;;;14.27;45.46;100785.09;10382432;28;20419;-78
2023/05/17 08:00:36;;;;;;;5.43;1.80;;;;;;;16.31;43.08;100786.56;10376745;28;20125;-78
2023/05/17 08:05:39;;;;;;;5.50;1.90;;;;;;;17.48;41.20;100777.97;10409378;28;20104;-78
2023/05/17 08:10:42;;;;;;;4.57;1.70;;;;;;;18.54;39.38;100769.72;10398359;28;20037;-81
2023/05/17 08:15:45;;;;;;;3.70;1.92;;;;;;;18.15;40.10;100773.66;10400336;28;20144;-81
2023/05/17 08:20:49;;;;;;;4.22;1.77;;;;;;;16.51;40.54;100770.22;10401767;28;20495;-81
2023/05/17 08:25:52;;;;;;;4.35;1.95;;;;;;;15.35;42.69;100779.91;10383522;28;20058;-81
2023/05/17 08:30:55;;;;;;;3.75;1.73;;;;;;;15.27;43.16;100776.94;10400393;28;20109;-81
2023/05/17 08:36:00;;;;;;;6.80;1.95;;;;;;;16.53;41.75;100771.78;10399827;28;20608;-80
2023/05/17 08:41:02;;;;;;;4.55;1.70;;;;;;;17.25;40.54;100762.09;10419655;28;20067;-80
2023/05/17 08:46:04;;;;;;;2.95;1.50;;;;;;;17.19;39.59;100758.13;10395193;28;20049;-81
2023/05/17 08:51:07;;;;;;;4.30;1.70;;;;;;;16.99;38.32;100758.75;10388475;28;20502;-81
2023/05/17 08:56:11;;;;;;;3.05;1.58;;;;;;;15.85;39.95;100765.16;10385218;28;20491;-81
2023/05/17 09:01:15;;;;;;;2.97;1.60;;;;;;;16.64;39.73;100756.00;10400046;28;20659;-81
2023/05/17 09:06:22;;;;;;;2.47;1.30;;;;;;;17.94;37.38;100753.28;10398760;28;20503;-81
2023/05/17 09:11:29;;;;;;;3.13;1.60;;;;;;;16.39;38.97;100755.19;10401439;28;20553;-81
2023/05/17 09:16:36;;;;;;;5.05;1.88;;;;;;;15.76;39.80;100766.63;10396775;28;20064;-81
2023/05/17 09:21:38;;;;;;;6.35;1.83;;;;;;;16.60;40.18;100764.25;10385719;28;20041;-81
2023/05/17 09:26:44;;;;;;;5.10;1.70;;;;;;;16.54;40.13;100756.78;10382737;28;20072;-80
2023/05/17 09:31:49;;;;;;;3.92;1.75;;;;;;;17.81;36.95;100761.38;10362641;28;20049;-80
2023/05/17 09:36:53;;;;;;;3.45;1.55;;;;;;;17.20;37.04;100748.41;10375160;28;20046;-80
2023/05/17 09:41:56;;;;;;;2.50;1.30;;;;;;;17.13;36.74;100755.06;10404019;28;20045;-80
2023/05/17 09:47:00;;;;;;;2.58;1.50;;;;;;;17.45;35.70;100751.75;10397607;28;20048;-80
2023/05/17 09:52:06;;;;;;;6.65;1.50;;;;;;;16.56;35.76;100750.44;10404548;28;20038;-80
2023/05/17 09:57:09;;;;;;;2.78;1.40;;;;;;;17.24;35.23;100736.63;10396485;28;20041;-80
2023/05/17 10:02:23;;;;;;;4.18;1.20;;;;;;;17.60;32.28;100739.19;10388867;28;20411;-80
2023/05/17 10:07:27;;;;;;;3.97;1.33;;;;;;;18.60;32.95;100727.69;10391620;28;20140;-80
2023/05/17 10:12:34;;;;;;;1.95;1.20;;;;;;;18.00;33.97;100729.00;10405831;28;20034;-80
2023/05/17 10:17:40;;;;;;;2.63;1.30;;;;;;;16.77;34.48;100740.94;10405156;28;20108;-81
2023/05/17 10:22:47;;;;;;;3.15;1.30;;;;;;;16.61;34.30;100734.28;10408062;28;20045;-80
2023/05/17 10:27:51;;;;;;;2.80;1.20;;;;;;;17.63;33.62;100725.69;10406818;28;20045;-80
2023/05/17 10:32:54;;;;;;;3.03;1.20;;;;;;;17.31;30.64;100729.91;10403587;28;20060;-81
2023/05/17 10:37:57;;;;;;;1.65;0.90;;;;;;;17.57;32.29;100718.22;10370520;28;20547;-81
2023/05/17 10:43:00;;;;;;;2.38;0.90;;;;;;;17.09;32.94;100716.63;10394902;28;20042;-80
2023/05/17 10:48:05;;;;;;;1.42;1.13;;;;;;;17.23;31.07;100709.34;10396465;28;20045;-81
2023/05/17 10:53:10;;;;;;;0.95;0.82;;;;;;;17.35;31.50;100716.38;10410629;28;20037;-81
2023/05/17 10:58:18;;;;;;;3.65;0.98;;;;;;;17.23;31.68;100704.06;10381631;28;20045;-80
2023/05/17 11:03:32;;;;;;;2.20;1.00;;;;;;;17.03;31.61;100700.28;10398067;28;20497;-81
2023/05/17 11:08:36;;;;;;;1.52;1.00;;;;;;;17.28;32.43;100691.31;10383104;28;20646;-80
2023/05/17 11:13:56;;;;;;;3.60;1.17;;;;;;;17.52;31.36;100681.59;10394949;28;20041;-80
2023/05/17 11:19:10;;;;;;;2.75;0.80;;;;;;;16.68;32.26;100685.31;10394335;28;20045;-80
2023/05/17 11:24:18;;;;;;;7.38;1.10;;;;;;;16.85;32.02;100690.22;10389995;28;20132;-80
2023/05/17 11:29:29;;;;;;;1.30;0.82;;;;;;;17.14;30.79;100682.78;10392361;28;20083;-80
2023/05/17 11:34:32;;;;;;;1.50;0.93;;;;;;;16.89;32.10;100683.75;10399906;28;20088;-80
2023/05/17 11:39:35;;;;;;;3.67;1.17;;;;;;;17.37;32.32;100688.03;10388058;28;20048;-81
2023/05/17 11:44:39;;;;;;;1.73;0.93;;;;;;;18.10;30.78;100683.16;10394939;28;20041;-81
2023/05/17 11:49:41;;;;;;;1.58;0.93;;;;;;;17.46;31.38;100686.50;10388163;28;20045;-80
2023/05/17 11:54:44;;;;;;;2.50;0.80;;;;;;;17.03;31.80;100691.50;10399563;28;20042;-80
2023/05/17 11:59:48;;;;;;;3.58;1.13;;;;;;;16.57;31.60;100683.44;10398820;28;20072;-81
2023/05/17 12:04:50;;;;;;;4.28;1.08;;;;;;;17.08;31.94;100670.84;10401026;28;20041;-80
2023/05/17 12:09:53;;;;;;;1.40;1.05;;;;;;;16.97;31.19;100684.88;10388102;28;20133;-81
2023/05/17 12:14:57;;;;;;;1.98;1.13;;;;;;;16.72;31.56;100676.22;10392080;28;20069;-81
2023/05/17 12:20:07;;;;;;;2.70;0.90;;;;;;;16.63;31.23;100682.19;10369290;28;20088;-81
2023/05/17 12:25:28;;;;;;;2.28;0.75;;;;;;;16.66;29.62;100668.72;10400700;28;20140;-80
2023/05/17 12:30:31;;;;;;;;;;;;;;;16.11;30.90;100675.31;10400574;28;20486;-80
2023/05/17 12:35:33;;;;;;;1.95;0.90;;;;;;;16.34;31.64;100675.47;10399559;28;19929;-81
2023/05/17 12:40:38;;;;;;;2.45;0.90;;;;;;;17.09;31.89;100676.97;10393250;28;20037;-80
2023/05/17 12:45:42;;;;;;;2.10;1.02;;;;;;;17.26;30.72;100673.91;10384641;28;20036;-80
2023/05/17 12:50:45;;;;;;;2.03;0.88;;;;;;;16.54;30.24;100680.19;10387663;28;20430;-80
2023/05/17 12:55:48;;;;;;;0.75;0.70;;;;;;;16.74;31.56;100663.72;10382508;28;20563;-81
2023/05/17 13:00:58;;;;;;;2.00;1.00;;;;;;;17.21;29.38;100655.75;10392392;28;20138;-83
2023/05/17 13:06:08;;;;;;;1.80;0.93;;;;;;;17.52;29.74;100652.50;10384535;28;20757;-81
2023/05/17 13:11:12;;;;;;;;;;;;;;;17.23;29.04;100656.47;10387384;28;20051;-81
2023/05/17 13:16:26;;;;;;;1.73;0.93;;;;;;;17.15;30.67;100669.44;10400501;28;19921;-81
2023/05/17 13:21:30;;;;;;;4.55;1.10;;;;;;;17.19;30.64;100657.66;10389693;28;20141;-80
2023/05/17 13:26:34;;;;;;;2.85;0.98;;;;;;;17.00;30.02;100657.34;10388490;28;20502;-81
2023/05/17 13:31:37;;;;;;;3.35;0.80;;;;;;;16.21;29.22;100652.59;10407989;28;20033;-81
2023/05/17 13:36:39;;;;;;;2.35;0.93;;;;;;;16.20;30.26;100642.97;10392638;28;20040;-80
2023/05/17 13:41:42;;;;;;;2.55;0.88;;;;;;;17.08;30.88;100641.75;10412742;28;20049;-80
2023/05/17 13:46:46;;;;;;;1.65;0.80;;;;;;;17.32;30.21;100629.34;10400050;28;20132;-81
2023/05/17 13:51:49;;;;;;;2.13;1.00;;;;;;;17.65;29.89;100628.56;10386326;28;20052;-81
2023/05/17 13:56:53;;;;;;;1.92;0.85;;;;;;;17.22;28.06;100633.63;10405275;28;20047;-81
2023/05/17 14:01:56;;;;;;;2.83;1.10;;;;;;;16.80;27.98;100632.44;10403073;28;20042;-81
2023/05/17 14:06:58;;;;;;;1.88;1.02;;;;;;;16.90;30.02;100622.84;10402341;28;20533;-81
2023/05/17 14:12:00;;;;;;;1.33;0.80;;;;;;;16.60;27.87;100629.56;10410841;28;20505;-80
2023/05/17 14:17:02;;;;;;;1.25;0.80;;;;;;;17.00;29.92;100623.84;10397465;28;20041;-80
2023/05/17 14:22:07;;;;;;;1.40;0.90;;;;;;;17.49;29.42;100618.31;10407309;28;20046;-80
2023/05/17 14:27:10;;;;;;;2.60;1.00;;;;;;;17.53;27.79;100614.50;10394528;28;20045;-80
2023/05/17 14:32:13;;;;;;;1.85;1.00;;;;;;;17.59;28.65;100608.72;10412453;28;20121;-80
2023/05/17 14:37:15;;;;;;;1.75;0.98;;;;;;;17.99;28.90;100616.16;10378312;28;20081;-80
2023/05/17 14:42:17;;;;;;;2.78;1.05;;;;;;;17.44;28.44;100601.16;10380776;28;20125;-80
2023/05/17 14:47:21;;;;;;;1.98;1.08;;;;;;;17.53;28.44;100598.63;10390751;28;20464;-80
2023/05/17 14:52:24;;;;;;;2.00;0.93;;;;;;;17.17;27.53;100609.34;10393851;28;20041;-79
2023/05/17 14:57:26;;;;;;;2.00;1.10;;;;;;;17.01;28.30;100608.84;10386876;28;20049;-79
2023/05/17 15:02:28;;;;;;;1.58;0.95;;;;;;;17.38;27.90;100607.75;10401498;28;20038;-80
2023/05/17 15:07:33;;;;;;;1.95;0.80;;;;;;;17.56;28.50;100613.41;10398106;28;20042;-79
2023/05/17 15:12:36;;;;;;;1.27;0.77;;;;;;;17.55;28.29;100609.91;10409366;28;20040;-79
2023/05/17 15:17:38;;;;;;;1.65;0.90;;;;;;;17.71;28.52;100605.09;10389943;28;20042;-80
2023/05/17 15:22:40;;;;;;;2.05;0.95;;;;;;;17.88;28.40;100609.06;10393734;28;20045;-80
2023/05/17 15:27:42;;;;;;;1.55;0.82;;;;;;;17.84;27.75;100599.69;10389328;28;20045;-79
2023/05/17 15:32:45;;;;;;;1.58;0.80;;;;;;;17.90;27.98;100609.78;10396245;28;20045;-79
2023/05/17 15:37:47;;;;;;;1.27;0.80;;;;;;;17.85;27.99;100601.41;10383359;28;20469;-78
2023/05/17 15:42:51;;;;;;;2.22;0.95;;;;;;;17.63;27.75;100601.38;10402881;28;20048;-79
2023/05/17 15:47:55;;;;;;;1.50;0.90;;;;;;;17.51;28.24;100597.03;10394792;28;20141;-79
2023/05/17 15:52:57;;;;;;;2.53;1.05;;;;;;;17.66;28.65;100595.88;10401012;28;20045;-79
2023/05/17 15:58:01;;;;;;;1.38;0.65;;;;;;;17.81;28.62;100590.19;10387980;28;20507;-79
2023/05/17 16:03:03;;;;;;;2.78;1.10;;;;;;;17.81;27.19;100610.53;10395511;28;20427;-79
2023/05/17 16:08:07;;;;;;;1.48;0.93;;;;;;;17.22;26.95;100612.47;10377511;28;20056;-79
2023/05/17 16:13:09;;;;;;;1.90;0.85;;;;;;;17.07;27.82;100611.03;10405157;28;20036;-79
2023/05/17 16:18:13;;;;;;;3.25;0.93;;;;;;;17.38;28.67;100614.84;10397970;28;20119;-79
2023/05/17 16:23:15;;;;;;;1.70;0.90;;;;;;;17.03;28.42;100607.78;10404612;28;20050;-78
2023/05/17 16:28:20;;;;;;;2.85;1.10;;;;;;;16.95;28.78;100611.94;10376768;28;20048;-78
2023/05/17 16:33:22;;;;;;;2.03;0.60;;;;;;;17.07;28.75;100615.47;10399885;28;20064;-78
2023/05/17 16:38:25;;;;;;;2.72;1.10;;;;;;;17.23;28.91;100618.63;10388099;28;20569;-79
2023/05/17 16:43:26;;;;;;;1.40;0.98;;;;;;;17.33;28.73;100620.47;10364361;28;20569;-79
2023/05/17 16:48:28;;;;;;;2.92;0.90;;;;;;;17.23;28.51;100624.75;10359229;28;20053;-79
2023/05/17 16:53:30;;;;;;;1.65;0.85;;;;;;;17.43;29.09;100621.44;10362872;28;20049;-79
2023/05/17 16:58:32;;;;;;;1.63;0.80;;;;;;;17.55;28.13;100631.06;10362018;28;20048;-79
2023/05/17 17:03:34;;;;;;;2.78;0.93;;;;;;;16.94;28.16;100629.59;10378237;28;20041;-80
2023/05/17 17:08:37;;;;;;;1.75;1.05;;;;;;;16.82;28.79;100638.44;10379592;28;20100;-80
2023/05/17 17:13:39;;;;;;;3.65;0.82;;;;;;;16.93;28.75;100633.22;10381728;28;20033;-80
2023/05/17 17:18:41;;;;;;;1.92;1.17;;;;;;;17.03;29.25;100636.00;10393022;28;20043;-80
2023/05/17 17:23:43;;;;;;;2.25;1.00;;;;;;;16.66;29.53;100637.03;10382469;28;20053;-79
2023/05/17 17:28:45;;;;;;;3.88;1.13;;;;;;;16.18;29.78;100633.50;10377907;28;20403;-79
2023/05/17 17:33:47;;;;;;;1.88;0.98;;;;;;;16.08;30.07;100641.22;10396066;28;20044;-79
2023/05/17 17:38:49;;;;;;;1.65;0.95;;;;;;;15.92;30.39;100643.28;10363598;28;20049;-78
2023/05/17 17:43:51;;;;;;;2.22;0.82;;;;;;;15.86;30.87;100648.97;10389770;28;20503;-79
2023/05/17 17:48:53;;;;;;;2.42;0.90;;;;;;;15.85;31.09;100657.00;10382330;28;20728;-79
2023/05/17 17:53:58;;;;;;;1.05;0.88;;;;;;;15.85;31.14;100657.00;10378664;28;20431;-79
2023/05/17 17:59:02;;;;;;;2.13;0.68;;;;;;;15.67;31.53;100664.41;10383543;28;20057;-79
2023/05/17 18:04:04;;;;;;;1.45;0.93;;;;;;;15.28;31.33;100667.94;10384362;28;20040;-79
2023/05/17 18:09:07;;;;;;;2.03;0.90;;;;;;;15.26;31.93;100666.34;10365114;28;20181;-79
2023/05/17 18:14:09;;;;;;;2.15;1.00;;;;;;;15.25;32.20;100673.41;10389525;28;20037;-79
2023/05/17 18:19:11;;;;;;;2.33;1.17;;;;;;;15.12;32.26;100687.53;10386106;28;20052;-79
2023/05/17 18:24:15;;;;;;;2.53;0.98;;;;;;;15.00;32.31;100683.06;10401327;28;20495;-79
2023/05/17 18:29:17;;;;;;;2.40;1.00;;;;;;;14.83;32.62;100691.22;10386576;28;20116;-79
2023/05/17 18:34:20;;;;;;;2.45;1.15;;;;;;;14.64;33.14;100695.97;10400811;28;20080;-79
2023/05/17 18:39:22;;;;;;;1.55;0.88;;;;;;;14.32;33.63;100695.38;10385699;28;20050;-77
2023/05/17 18:44:24;;;;;;;2.80;1.35;;;;;;;14.14;33.93;100700.00;10403484;28;20032;-77
2023/05/17 18:49:26;;;;;;;2.90;1.10;;;;;;;13.92;34.48;100702.28;10364465;28;20045;-77
2023/05/17 18:54:28;;;;;;;1.40;0.82;;;;;;;13.59;34.83;100712.19;10386368;28;20034;-78
2023/05/17 18:59:32;;;;;;;1.90;1.10;;;;;;;13.40;34.85;100724.69;10386553;28;20052;-77
2023/05/17 19:04:35;;;;;;;2.45;1.10;;;;;;;13.25;35.36;100730.84;10393848;28;20399;-77
2023/05/17 19:09:37;;;;;;;2.85;1.08;;;;;;;13.07;36.05;100734.53;10381434;28;20049;-77
2023/05/17 19:14:39;;;;;;;3.03;0.93;;;;;;;13.00;36.20;100741.91;10393712;28;20026;-77
2023/05/17 19:19:41;;;;;;;2.92;1.00;;;;;;;12.84;36.58;100744.53;10386500;28;20046;-78
2023/05/17 19:24:43;;;;;;;1.80;0.80;;;;;;;12.65;36.97;100745.66;10390392;28;20129;-78
2023/05/17 19:29:46;;;;;;;4.13;1.30;;;;;;;12.58;37.16;100755.66;10387336;28;20053;-78
2023/05/17 19:34:48;;;;;;;1.80;0.90;;;;;;;12.35;37.49;100758.69;10400396;28;20029;-77
2023/05/17 19:39:50;;;;;;;1.92;1.15;;;;;;;12.22;37.86;100772.50;10396877;28;20128;-78
2023/05/17 19:44:52;;;;;;;2.70;1.00;;;;;;;12.10;38.53;100774.00;10394302;28;20044;-77
2023/05/17 19:49:56;;;;;;;2.70;1.10;;;;;;;11.87;38.70;100782.19;10393111;28;20467;-77
2023/05/17 19:54:59;;;;;;;2.80;1.02;;;;;;;11.89;38.85;100786.44;10387675;28;20124;-77
2023/05/17 20:00:02;;;;;;;2.88;1.17;;;;;;;11.74;39.34;100792.50;10390782;28;20482;-77
2023/05/17 20:05:05;;;;;;;2.95;0.98;;;;;;;11.51;39.70;100789.31;10394157;28;20067;-85
2023/05/17 20:10:07;;;;;;;2.22;0.93;;;;;;;11.51;39.86;100795.41;10381407;28;20080;-85
2023/05/17 20:15:09;;;;;;;4.30;1.27;;;;;;;11.44;40.18;100801.03;10408568;28;20045;-85
2023/05/17 20:20:11;;;;;;;2.75;1.40;;;;;;;11.28;40.59;100809.63;10409159;28;20045;-85
2023/05/17 20:25:13;;;;;;;3.83;1.33;;;;;;;11.25;41.07;100814.19;10408633;28;20401;-85
2023/05/17 20:30:15;;;;;;;2.42;1.30;;;;;;;11.18;41.06;100812.75;10397539;28;20045;-85
2023/05/17 20:35:17;;;;;;;3.95;1.20;;;;;;;11.06;40.98;100819.44;10408121;28;20045;-84
2023/05/17 20:40:19;;;;;;;2.25;1.13;;;;;;;10.94;41.16;100820.00;10383490;28;20396;-85
2023/05/17 20:45:21;;;;;;;2.47;1.20;;;;;;;10.84;41.38;100829.19;10408321;28;20078;-85
2023/05/17 20:50:23;;;;;;;2.75;1.10;;;;;;;10.79;41.49;100831.16;10408251;28;20076;-85
2023/05/17 20:55:25;;;;;;;2.65;1.20;;;;;;;10.68;42.10;100838.69;10380391;28;20042;-85
2023/05/17 21:00:27;;;;;;;1.90;1.10;;;;;;;10.55;42.55;100836.66;10385862;28;20059;-85
2023/05/17 21:05:34;;;;;;;4.70;1.40;;;;;;;10.43;42.78;100836.31;10408536;28;20422;-85
2023/05/17 21:10:39;;;;;;;3.95;1.30;;;;;;;10.40;43.27;100841.69;10404351;28;20083;-85
2023/05/17 21:15:41;;;;;;;2.45;1.10;;;;;;;10.25;43.59;100855.44;10391313;28;20046;-84
2023/05/17 21:20:43;;;;;;;5.45;1.25;;;;;;;10.15;44.01;100853.28;10406244;28;20049;-85
2023/05/17 21:25:45;;;;;;;5.60;1.40;;;;;;;9.74;44.66;100862.03;10377780;28;20053;-85
2023/05/17 21:30:47;;;;;;;2.88;1.17;;;;;;;9.59;44.77;100858.25;10391789;28;20044;-85
2023/05/17 21:35:48;;;;;;;2.13;1.20;;;;;;;9.49;45.06;100862.16;10397476;28;20041;-84
2023/05/17 21:40:50;;;;;;;2.80;1.42;;;;;;;9.39;45.42;100866.03;10404633;28;20065;-85
2023/05/17 21:45:52;;;;;;;3.60;1.33;;;;;;;9.42;45.83;100871.97;10381952;28;20050;-84
2023/05/17 21:50:54;;;;;;;3.85;1.20;;;;;;;9.44;46.47;100862.31;10395935;28;20076;-84
2023/05/17 21:55:56;;;;;;;1.60;1.20;;;;;;;9.28;46.91;100863.03;10391629;28;20050;-85
2023/05/17 22:01:04;;;;;;;2.25;1.27;;;;;;;9.06;47.23;100857.78;10379518;28;20049;-85
2023/05/17 22:06:06;;;;;;;3.22;1.50;;;;;;;8.96;47.42;100859.03;10406531;28;20042;-85
2023/05/17 22:11:09;;;;;;;2.03;1.42;;;;;;;8.99;47.66;100864.16;10413670;28;20141;-84
2023/05/17 22:16:12;;;;;;;2.72;1.38;;;;;;;9.03;47.98;100857.06;10413370;28;20073;-84
2023/05/17 22:21:14;;;;;;;5.60;1.20;;;;;;;8.91;48.68;100858.38;10414121;28;20041;-85
2023/05/17 22:26:17;;;;;;;2.63;1.20;;;;;;;8.83;49.20;100865.66;10413767;28;20057;-84
2023/05/17 22:31:18;;;;;;;1.50;1.13;;;;;;;8.77;49.34;100860.66;10392908;28;20053;-85
2023/05/17 22:36:23;;;;;;;2.63;1.30;;;;;;;8.63;49.50;100857.69;10396890;28;20043;-84
2023/05/17 22:41:26;;;;;;;3.58;1.40;;;;;;;8.39;49.95;100861.19;10405310;28;20042;-84
2023/05/17 22:46:28;;;;;;;2.15;1.20;;;;;;;8.17;50.51;100858.53;10392615;28;20526;-85
2023/05/17 22:51:33;;;;;;;4.35;1.60;;;;;;;8.19;50.78;100864.53;10398744;28;20129;-84
2023/05/17 22:56:35;;;;;;;2.17;1.25;;;;;;;8.03;50.73;100871.16;10408591;28;20495;-85
2023/05/17 23:01:37;;;;;;;2.55;1.50;;;;;;;7.81;51.22;100875.38;10411618;28;20048;-84
2023/05/17 23:06:39;;;;;;;3.75;1.52;;;;;;;7.71;51.61;100876.59;10413637;28;20080;-85
2023/05/17 23:11:42;;;;;;;2.17;1.35;;;;;;;7.71;52.15;100877.44;10411577;28;20104;-85
2023/05/17 23:16:44;;;;;;;1.88;1.35;;;;;;;7.69;52.22;100876.63;10396690;28;20048;-85
2023/05/17 23:21:47;;;;;;;1.92;1.23;;;;;;;7.53;52.37;100874.59;10411802;28;20049;-85